createdAt,value
2022-11-06T00:01:34.515Z,100862.53
2022-11-06T00:04:01.064Z,100858.41
2022-11-06T00:06:45.812Z,100867.91
2022-11-06T00:09:13.454Z,100870.91
2022-11-06T00:11:40.886Z,100869.50
2022-11-06T00:14:07.447Z,100861.38
2022-11-06T00:16:33.933Z,100861.50
2022-11-06T00:19:01.462Z,100862.78
2022-11-06T00:21:29.117Z,100853.81
2022-11-06T00:23:57.876Z,100846.53
2022-11-06T00:26:26.704Z,100869.72
2022-11-06T00:28:53.318Z,100873.88
2022-11-06T00:31:22.322Z,100871.59
2022-11-06T00:33:49.062Z,100873.22
2022-11-06T00:36:18.428Z,100874.78
2022-11-06T00:38:45.128Z,100869.84
2022-11-06T00:41:14.884Z,100876.69
2022-11-06T00:43:41.893Z,100867.53
2022-11-06T00:46:12.821Z,100867.66
2022-11-06T00:48:40.365Z,100872.84
2022-11-06T00:51:21.919Z,100863.97
2022-11-06T00:53:48.330Z,100865.13
2022-11-06T00:56:16.595Z,100867.72
2022-11-06T00:58:43.346Z,100868.59
2022-11-06T01:01:11.057Z,100868.63
2022-11-06T01:03:39.015Z,100871.75
2022-11-06T01:06:17.393Z,100874.44
2022-11-06T01:08:44.613Z,100873.50
2022-11-06T01:11:17.125Z,100869.53
2022-11-06T01:13:44.141Z,100871.34
2022-11-06T01:16:14.591Z,100862.19
2022-11-06T01:18:42.559Z,100874.72
2022-11-06T01:21:16.683Z,100866.97
2022-11-06T01:23:43.893Z,100850.72
2022-11-06T01:26:12.031Z,100858.97
2022-11-06T01:28:39.614Z,100848.13
2022-11-06T01:31:08.569Z,100835.22
2022-11-06T01:33:35.358Z,100837.81
2022-11-06T01:36:01.888Z,100836.28
2022-11-06T01:38:29.200Z,100839.06
2022-11-06T01:40:56.018Z,100829.13
2022-11-06T01:43:56.357Z,100837.28
2022-11-06T01:46:26.346Z,100822.56
2022-11-06T01:49:05.840Z,100822.56
2022-11-06T01:51:52.723Z,100807.22
2022-11-06T01:54:20.679Z,100807.09
2022-11-06T01:56:50.140Z,100804.38
2022-11-06T01:59:18.852Z,100812.38
2022-11-06T02:01:45.733Z,100803.47
2022-11-06T02:04:16.173Z,100794.06
2022-11-06T02:06:44.355Z,100790.84
2022-11-06T02:09:13.510Z,100785.03
2022-11-06T02:11:45.395Z,100785.19
2022-11-06T02:14:21.357Z,100784.38
2022-11-06T02:17:02.854Z,100779.75
2022-11-06T02:19:58.109Z,100776.41
2022-11-06T02:22:36.508Z,100771.50
2022-11-06T02:25:13.998Z,100774.06
2022-11-06T02:27:54.309Z,100773.81
2022-11-06T02:30:20.778Z,100769.41
2022-11-06T02:32:59.975Z,100777.44
2022-11-06T02:35:40.706Z,100768.91
2022-11-06T02:38:14.581Z,100773.41
2022-11-06T02:40:46.528Z,100777.78
2022-11-06T02:43:14.469Z,100776.13
2022-11-06T02:45:52.862Z,100773.28
2022-11-06T02:48:21.845Z,100778.72
2022-11-06T02:50:49.420Z,100771.97
2022-11-06T02:53:17.039Z,100768.66
2022-11-06T02:55:48.732Z,100767.22
2022-11-06T02:58:29.688Z,100763.88
2022-11-06T03:01:03.761Z,100765.69
2022-11-06T03:03:33.101Z,100764.50
2022-11-06T03:06:15.864Z,100756.66
2022-11-06T03:08:46.501Z,100758.19
2022-11-06T03:11:17.727Z,100753.69
2022-11-06T03:13:56.527Z,100751.91
2022-11-06T03:16:28.916Z,100745.16
2022-11-06T03:19:02.955Z,100746.88
2022-11-06T03:21:38.860Z,100740.28
2022-11-06T03:24:15.927Z,100741.31
2022-11-06T03:26:47.370Z,100745.81
2022-11-06T03:29:21.683Z,100750.34
2022-11-06T03:32:11.251Z,100753.44
2022-11-06T03:35:02.574Z,100752.91
2022-11-06T03:37:39.924Z,100748.78
2022-11-06T03:40:09.828Z,100736.03
2022-11-06T03:42:37.211Z,100734.72
2022-11-06T03:45:07.906Z,100731.78
2022-11-06T03:48:11.576Z,100725.88
2022-11-06T03:50:42.840Z,100720.69
2022-11-06T03:53:15.620Z,100724.16
2022-11-06T03:55:48.735Z,100727.41
2022-11-06T03:58:18.449Z,100737.72
2022-11-06T04:00:45.212Z,100739.75
2022-11-06T04:03:34.045Z,100745.19
2022-11-06T04:06:11.264Z,100741.81
2022-11-06T04:08:56.932Z,100746.81
2022-11-06T04:11:44.357Z,100750.44
2022-11-06T04:14:14.069Z,100748.78
2022-11-06T04:16:43.701Z,100751.25
2022-11-06T04:19:18.226Z,100753.19
2022-11-06T04:22:08.997Z,100752.16
2022-11-06T04:25:25.011Z,100752.94
2022-11-06T04:28:03.515Z,100744.78
2022-11-06T04:30:34.664Z,100747.78
2022-11-06T04:33:21.882Z,100741.81
2022-11-06T04:35:54.284Z,100738.50
2022-11-06T04:38:26.355Z,100732.56
2022-11-06T04:41:02.494Z,100727.75
2022-11-06T04:43:53.444Z,100736.78
2022-11-06T04:46:36.908Z,100733.59
2022-11-06T04:49:05.357Z,100729.81
2022-11-06T04:51:33.771Z,100728.94
2022-11-06T04:54:00.281Z,100729.22
2022-11-06T04:56:33.995Z,100723.00
2022-11-06T04:59:01.566Z,100722.34
2022-11-06T05:01:27.997Z,100724.53
2022-11-06T05:03:54.463Z,100720.69
2022-11-06T05:06:23.549Z,100710.09
2022-11-06T05:08:53.680Z,100707.94
2022-11-06T05:11:20.054Z,100709.59
2022-11-06T05:13:46.424Z,100709.97
2022-11-06T05:16:12.821Z,100712.81
2022-11-06T05:18:39.201Z,100707.00
2022-11-06T05:21:23.941Z,100700.72
2022-11-06T05:23:50.300Z,100697.50
2022-11-06T05:26:16.727Z,100688.47
2022-11-06T05:28:43.082Z,100683.84
2022-11-06T05:31:09.516Z,100671.00
2022-11-06T05:33:35.926Z,100673.63
2022-11-06T05:36:04.328Z,100672.88
2022-11-06T05:38:31.622Z,100673.63
2022-11-06T05:40:58.018Z,100668.84
2022-11-06T05:43:24.892Z,100669.66
2022-11-06T05:45:51.255Z,100671.06
2022-11-06T05:48:17.705Z,100673.91
2022-11-06T05:50:44.232Z,100666.94
2022-11-06T05:53:10.643Z,100663.69
2022-11-06T05:55:37.003Z,100659.34
2022-11-06T05:58:03.378Z,100665.25
2022-11-06T06:00:29.759Z,100653.38
2022-11-06T06:02:56.241Z,100649.78
2022-11-06T06:05:22.710Z,100645.41
2022-11-06T06:07:49.099Z,100648.78
2022-11-06T06:10:15.522Z,100641.81
2022-11-06T06:12:41.865Z,100640.00
2022-11-06T06:15:08.590Z,100627.78
2022-11-06T06:17:35.297Z,100630.34
2022-11-06T06:20:01.690Z,100631.25
2022-11-06T06:22:28.112Z,100632.72
2022-11-06T06:24:54.613Z,100631.78
2022-11-06T06:27:21.135Z,100626.88
2022-11-06T06:29:47.826Z,100627.09
2022-11-06T06:32:14.205Z,100628.03
2022-11-06T06:34:40.598Z,100629.44
2022-11-06T06:42:37.965Z,100634.38
2022-11-06T06:45:04.611Z,100641.16
2022-11-06T06:47:30.988Z,100635.88
2022-11-06T06:49:57.321Z,100643.34
2022-11-06T06:52:23.698Z,100640.00
2022-11-06T06:54:50.066Z,100635.19
2022-11-06T06:57:16.476Z,100641.00
2022-11-06T06:59:42.804Z,100635.06
2022-11-06T07:02:09.543Z,100634.03
2022-11-06T07:04:35.986Z,100624.78
2022-11-06T07:07:02.324Z,100620.94
2022-11-06T07:09:32.199Z,100629.91
2022-11-06T07:11:59.094Z,100625.56
2022-11-06T07:14:25.463Z,100632.75
2022-11-06T07:16:53.872Z,100635.84
2022-11-06T07:19:20.311Z,100642.44
2022-11-06T07:21:46.685Z,100641.66
2022-11-06T07:24:13.054Z,100642.41
2022-11-06T07:26:39.397Z,100648.97
2022-11-06T07:29:05.724Z,100650.53
2022-11-06T07:31:32.064Z,100652.59
2022-11-06T07:33:58.492Z,100649.09
2022-11-06T07:36:24.830Z,100650.03
2022-11-06T07:38:51.174Z,100649.22
2022-11-06T07:41:17.544Z,100649.22
2022-11-06T07:43:44.307Z,100650.78
2022-11-06T07:46:12.205Z,100654.09
2022-11-06T07:48:39.472Z,100650.75
2022-11-06T07:51:08.074Z,100645.69
2022-11-06T07:53:34.744Z,100645.56
2022-11-06T07:56:01.205Z,100648.78
2022-11-06T07:58:27.628Z,100649.25
2022-11-06T08:00:55.908Z,100658.41
2022-11-06T08:03:23.563Z,100650.13
2022-11-06T08:05:50.557Z,100637.44
2022-11-06T08:08:17.157Z,100637.94
2022-11-06T08:10:43.739Z,100620.34
2022-11-06T08:13:11.263Z,100628.34
2022-11-06T08:15:38.627Z,100623.59
2022-11-06T08:18:06.386Z,100605.25
2022-11-06T08:20:32.745Z,100613.94
2022-11-06T08:23:00.535Z,100613.81
2022-11-06T08:25:27.214Z,100607.00
2022-11-06T08:27:57.911Z,100606.44
2022-11-06T08:30:24.893Z,100603.66
2022-11-06T08:32:51.567Z,100610.25
2022-11-06T08:35:17.975Z,100608.44
2022-11-06T08:37:44.738Z,100608.00
2022-11-06T08:40:11.747Z,100605.00
2022-11-06T08:42:38.129Z,100600.16
2022-11-06T08:45:05.667Z,100601.41
2022-11-06T08:47:32.088Z,100593.53
2022-11-06T08:49:58.443Z,100594.66
2022-11-06T08:52:26.745Z,100587.22
2022-11-06T08:54:55.181Z,100592.50
2022-11-06T08:57:21.575Z,100591.38
2022-11-06T08:59:47.923Z,100575.69
2022-11-06T09:02:14.770Z,100579.25
2022-11-06T09:04:41.653Z,100580.50
2022-11-06T09:07:08.394Z,100573.03
2022-11-06T09:09:34.749Z,100568.97
2022-11-06T09:12:01.834Z,100568.31
2022-11-06T09:14:28.282Z,100554.50
2022-11-06T09:16:54.714Z,100552.47
2022-11-06T09:19:21.202Z,100546.53
2022-11-06T09:21:53.489Z,100540.34
2022-11-06T09:24:37.217Z,100537.53
2022-11-06T09:27:07.475Z,100536.66
2022-11-06T09:29:33.902Z,100537.88
2022-11-06T09:32:00.271Z,100538.91
2022-11-06T09:34:26.671Z,100551.34
2022-11-06T09:36:53.021Z,100541.34
2022-11-06T09:39:19.399Z,100542.91
2022-11-06T09:41:54.229Z,100531.81
2022-11-06T09:44:37.604Z,100533.09
2022-11-06T09:47:07.042Z,100537.06
2022-11-06T09:49:48.408Z,100534.31
2022-11-06T09:52:54.769Z,100528.25
2022-11-06T09:55:30.776Z,100535.09
2022-11-06T09:58:09.939Z,100522.63
2022-11-06T10:00:36.522Z,100521.47
2022-11-06T10:03:06.443Z,100512.34
2022-11-06T10:05:34.871Z,100507.31
2022-11-06T10:08:04.348Z,100507.78
2022-11-06T10:10:41.006Z,100504.78
2022-11-06T10:13:43.196Z,100502.41
2022-11-06T10:16:24.216Z,100501.72
2022-11-06T10:19:12.005Z,100495.34
2022-11-06T10:21:48.694Z,100503.03
2022-11-06T10:24:21.573Z,100500.34
2022-11-06T10:26:54.888Z,100491.66
2022-11-06T10:29:21.235Z,100492.06
2022-11-06T10:32:25.391Z,100487.75
2022-11-06T10:35:01.579Z,100486.28
2022-11-06T10:37:32.444Z,100480.06
2022-11-06T10:39:59.783Z,100477.38
2022-11-06T10:42:37.612Z,100466.69
2022-11-06T10:45:10.550Z,100463.94
2022-11-06T10:47:42.280Z,100444.38
2022-11-06T10:50:13.596Z,100451.31
2022-11-06T10:52:49.043Z,100444.09
2022-11-06T10:55:42.345Z,100439.88
2022-11-06T10:58:11.223Z,100429.25
2022-11-06T11:00:38.644Z,100434.72
2022-11-06T11:03:07.024Z,100426.56
2022-11-06T11:05:41.412Z,100427.25
2022-11-06T11:08:30.458Z,100423.66
2022-11-06T11:11:15.367Z,100422.63
2022-11-06T11:13:44.192Z,100422.25
2022-11-06T11:16:19.173Z,100417.28
2022-11-06T11:18:46.382Z,100408.91
2022-11-06T11:21:20.338Z,100406.25
2022-11-06T11:24:05.147Z,100405.66
2022-11-06T11:26:34.107Z,100395.72
2022-11-06T11:29:03.782Z,100394.81
2022-11-06T11:31:31.952Z,100389.78
2022-11-06T11:34:00.187Z,100376.72
2022-11-06T11:36:26.830Z,100373.31
2022-11-06T11:38:53.535Z,100369.81
2022-11-06T11:41:19.769Z,100358.53
2022-11-06T11:44:19.142Z,100361.94
2022-11-06T11:46:51.320Z,100352.16
2022-11-06T11:49:33.765Z,100341.75
2022-11-06T11:52:05.233Z,100351.63
2022-11-06T11:54:33.844Z,100344.91
2022-11-06T11:57:08.323Z,100342.50
2022-11-06T11:59:43.450Z,100337.28
2022-11-06T12:02:20.897Z,100333.09
2022-11-06T12:04:59.026Z,100325.78
2022-11-06T12:07:29.257Z,100309.56
2022-11-06T12:09:55.809Z,100309.34
2022-11-06T12:12:31.070Z,100311.69
2022-11-06T12:15:11.694Z,100304.53
2022-11-06T12:17:40.105Z,100307.94
2022-11-06T12:20:14.407Z,100300.50
2022-11-06T12:22:44.688Z,100288.88
2022-11-06T12:25:16.074Z,100283.84
2022-11-06T12:27:44.322Z,100279.81
2022-11-06T12:30:13.188Z,100269.44
2022-11-06T12:33:14.793Z,100279.09
2022-11-06T12:35:48.276Z,100275.16
2022-11-06T12:38:21.240Z,100259.50
2022-11-06T12:40:59.459Z,100255.75
2022-11-06T12:43:45.551Z,100251.88
2022-11-06T12:46:58.943Z,100233.84
2022-11-06T12:49:43.847Z,100226.22
2022-11-06T12:52:16.099Z,100213.34
2022-11-06T12:54:59.540Z,100216.78
2022-11-06T12:57:51.902Z,100203.19
2022-11-06T13:00:21.133Z,100201.06
2022-11-06T13:03:22.115Z,100196.38
2022-11-06T13:05:56.110Z,100187.09
2022-11-06T13:08:47.007Z,100190.94
2022-11-06T13:11:21.656Z,100191.38
2022-11-06T13:14:11.993Z,100183.13
2022-11-06T13:16:49.186Z,100180.44
2022-11-06T13:19:31.320Z,100177.69
2022-11-06T13:22:19.084Z,100182.53
2022-11-06T13:24:51.365Z,100184.56
2022-11-06T13:27:40.822Z,100189.06
2022-11-06T13:30:16.454Z,100165.63
2022-11-06T13:32:51.063Z,100174.72
2022-11-06T13:35:21.363Z,100188.25
2022-11-06T13:37:49.170Z,100187.06
2022-11-06T13:40:30.661Z,100192.09
2022-11-06T13:43:03.527Z,100197.63
2022-11-06T13:45:34.004Z,100192.91
2022-11-06T13:48:22.060Z,100196.31
2022-11-06T13:51:00.624Z,100190.22
2022-11-06T13:53:45.475Z,100180.31
2022-11-06T13:56:39.671Z,100181.28
2022-11-06T13:59:23.805Z,100178.69
2022-11-06T14:01:57.453Z,100180.22
2022-11-06T14:04:53.408Z,100190.94
2022-11-06T14:07:20.858Z,100192.91
2022-11-06T14:09:47.682Z,100177.78
2022-11-06T14:12:20.145Z,100179.22
2022-11-06T14:14:46.943Z,100181.91
2022-11-06T14:17:16.318Z,100177.97
2022-11-06T14:19:50.219Z,100167.59
2022-11-06T14:22:26.854Z,100168.38
2022-11-06T14:24:58.402Z,100169.41
2022-11-06T14:27:28.607Z,100177.00
2022-11-06T14:30:18.032Z,100164.81
2022-11-06T14:32:46.750Z,100179.00
2022-11-06T14:35:28.457Z,100179.63
2022-11-06T14:38:19.229Z,100182.75
2022-11-06T14:40:45.643Z,100172.53
2022-11-06T14:43:18.413Z,100168.53
2022-11-06T14:45:59.807Z,100152.69
2022-11-06T14:48:29.031Z,100142.53
2022-11-06T14:50:55.857Z,100143.06
2022-11-06T14:53:25.569Z,100138.38
2022-11-06T14:56:06.498Z,100141.16
2022-11-06T14:58:49.108Z,100145.00
2022-11-06T15:01:16.843Z,100141.06
2022-11-06T15:03:52.099Z,100149.13
2022-11-06T15:06:18.485Z,100145.63
2022-11-06T15:08:50.606Z,100132.38
2022-11-06T15:11:32.405Z,100133.91
2022-11-06T15:13:58.643Z,100140.63
2022-11-06T15:16:28.106Z,100129.97
2022-11-06T15:18:54.809Z,100126.13
2022-11-06T15:21:24.430Z,100115.50
2022-11-06T15:24:15.082Z,100107.25
2022-11-06T15:26:48.679Z,100109.50
2022-11-06T15:29:22.862Z,100117.72
2022-11-06T15:31:52.770Z,100114.50
2022-11-06T15:34:29.330Z,100115.13
2022-11-06T15:37:11.785Z,100115.13
2022-11-06T15:39:39.086Z,100122.44
2022-11-06T15:42:11.831Z,100119.59
2022-11-06T15:44:39.836Z,100111.38
2022-11-06T15:47:06.241Z,100113.25
2022-11-06T15:49:32.667Z,100121.75
2022-11-06T15:52:01.462Z,100118.84
2022-11-06T15:54:36.977Z,100110.47
2022-11-06T15:57:16.017Z,100112.00
2022-11-06T15:59:42.469Z,100113.94
2022-11-06T16:02:22.198Z,100113.63
2022-11-06T16:04:50.174Z,100120.44
2022-11-06T16:07:17.517Z,100106.59
2022-11-06T16:09:44.344Z,100123.38
2022-11-06T16:12:13.252Z,100117.19
2022-11-06T16:14:41.629Z,100119.44
2022-11-06T16:17:22.511Z,100117.91
2022-11-06T16:19:49.179Z,100117.31
2022-11-06T16:22:21.243Z,100126.63
2022-11-06T16:24:54.386Z,100140.50
2022-11-06T16:27:22.610Z,100139.13
2022-11-06T16:29:52.603Z,100144.91
2022-11-06T16:32:21.122Z,100151.53
2022-11-06T16:34:48.081Z,100130.03
2022-11-06T16:37:17.375Z,100144.03
2022-11-06T16:39:52.784Z,100138.97
2022-11-06T16:42:22.101Z,100134.75
2022-11-06T16:44:50.521Z,100137.56
2022-11-06T16:47:21.631Z,100120.06
2022-11-06T16:49:54.325Z,100114.66
2022-11-06T16:52:34.083Z,100115.03
2022-11-06T16:55:03.442Z,100093.06
2022-11-06T16:57:49.986Z,100063.63
2022-11-06T17:00:19.314Z,100057.78
2022-11-06T17:02:48.859Z,100033.09
2022-11-06T17:05:19.253Z,100037.50
2022-11-06T17:07:45.994Z,100053.28
2022-11-06T17:10:34.316Z,100015.13
2022-11-06T17:13:11.047Z,99987.19
2022-11-06T17:15:37.631Z,99988.34
2022-11-06T17:18:04.176Z,99998.09
2022-11-06T17:20:30.841Z,100009.44
2022-11-06T17:22:57.207Z,100024.25
2022-11-06T17:25:23.578Z,100019.97
2022-11-06T17:27:49.963Z,100018.97
2022-11-06T17:30:16.389Z,100019.50
2022-11-06T17:32:42.836Z,100029.41
2022-11-06T17:35:09.521Z,100007.25
2022-11-06T17:37:38.893Z,99998.13
2022-11-06T17:40:05.548Z,99998.91
2022-11-06T17:42:31.974Z,100001.50
2022-11-06T17:44:58.334Z,100006.16
2022-11-06T17:47:24.751Z,100006.66
2022-11-06T17:49:51.329Z,100006.66
2022-11-06T17:52:17.788Z,100003.88
2022-11-06T17:54:44.159Z,99986.84
2022-11-06T17:57:10.522Z,99984.38
2022-11-06T17:59:36.914Z,99973.84
2022-11-06T18:02:03.570Z,99990.16
2022-11-06T18:04:34.288Z,99978.41
2022-11-06T18:07:00.783Z,99969.59
2022-11-06T18:09:27.485Z,99963.00
2022-11-06T18:11:55.031Z,99965.72
2022-11-06T18:14:23.193Z,99939.19
2022-11-06T18:16:49.936Z,99938.25
2022-11-06T18:19:18.920Z,99929.63
2022-11-06T18:21:45.406Z,99923.34
2022-11-06T18:24:11.934Z,99920.38
2022-11-06T18:26:38.354Z,99916.28
2022-11-06T18:29:05.459Z,99912.81
2022-11-06T18:31:32.054Z,99921.38
2022-11-06T18:33:58.446Z,99909.66
2022-11-06T18:36:24.820Z,99906.09
2022-11-06T18:38:51.214Z,99921.19
2022-11-06T18:41:19.457Z,99917.13
2022-11-06T18:43:46.027Z,99925.34
2022-11-06T18:46:15.136Z,99935.28
2022-11-06T18:48:41.930Z,99942.53
2022-11-06T18:51:33.461Z,99948.31
2022-11-06T18:54:04.401Z,99952.97
2022-11-06T18:56:31.012Z,99954.97
2022-11-06T18:58:57.453Z,99946.50
2022-11-06T19:01:23.997Z,99939.34
2022-11-06T19:03:50.721Z,99936.69
2022-11-06T19:06:18.931Z,99934.09
2022-11-06T19:08:45.466Z,99935.25
2022-11-06T19:11:13.724Z,99932.28
2022-11-06T19:13:46.276Z,99931.59
2022-11-06T19:16:14.280Z,99921.53
2022-11-06T19:18:41.047Z,99931.47
2022-11-06T19:21:09.329Z,99934.38
2022-11-06T19:23:41.075Z,99947.22
2022-11-06T19:26:30.527Z,99942.81
2022-11-06T19:28:58.029Z,99945.00
2022-11-06T19:31:28.690Z,99946.97
2022-11-06T19:33:56.309Z,99961.69
2022-11-06T19:36:22.698Z,99953.94
2022-11-06T19:38:49.075Z,99937.13
2022-11-06T19:41:15.498Z,99950.34
2022-11-06T19:43:41.985Z,99943.41
2022-11-06T19:46:08.621Z,99947.28
2022-11-06T19:48:35.661Z,99944.69
2022-11-06T19:51:02.136Z,99957.88
2022-11-06T19:53:28.577Z,99958.50
2022-11-06T19:55:56.005Z,99959.28
2022-11-06T19:58:22.435Z,99957.78
2022-11-06T20:00:48.831Z,99955.31
2022-11-06T20:03:16.605Z,99953.53
2022-11-06T20:05:43.340Z,99964.09
2022-11-06T20:08:09.852Z,99955.81
2022-11-06T20:10:36.586Z,99965.22
2022-11-06T20:13:03.978Z,99955.22
2022-11-06T20:15:31.038Z,99967.53
2022-11-06T20:17:57.507Z,99965.22
2022-11-06T20:20:24.218Z,99970.91
2022-11-06T20:22:51.079Z,99963.81
2022-11-06T20:25:17.847Z,99962.53
2022-11-06T20:27:45.256Z,99981.16
2022-11-06T20:30:12.168Z,99984.72
2022-11-06T20:32:38.547Z,100001.25
2022-11-06T20:35:05.706Z,99983.66
2022-11-06T20:37:32.720Z,99989.69
2022-11-06T20:39:59.169Z,100004.13
2022-11-06T20:42:25.586Z,100006.63
2022-11-06T20:44:52.108Z,99998.69
2022-11-06T20:47:18.488Z,99995.06
2022-11-06T20:49:44.914Z,100004.63
2022-11-06T20:52:13.999Z,99997.28
2022-11-06T20:54:46.410Z,99993.34
2022-11-06T20:57:13.539Z,99996.28
2022-11-06T20:59:39.989Z,99985.94
2022-11-06T21:02:06.547Z,99993.25
2022-11-06T21:04:33.039Z,99998.34
2022-11-06T21:06:59.500Z,99994.19
2022-11-06T21:09:26.078Z,99996.25
2022-11-06T21:11:52.507Z,99992.81
2022-11-06T21:14:19.246Z,99999.06
2022-11-06T21:16:45.904Z,99996.38
2022-11-06T21:19:12.357Z,100001.66
2022-11-06T21:21:38.850Z,100005.41
2022-11-06T21:24:05.850Z,100002.34
2022-11-06T21:26:35.110Z,100009.72
2022-11-06T21:29:03.348Z,100011.28
2022-11-06T21:31:30.935Z,100016.38
2022-11-06T21:33:58.740Z,100011.81
2022-11-06T21:36:33.637Z,100005.84
2022-11-06T21:39:05.196Z,100017.97
2022-11-06T21:41:34.308Z,100030.22
2022-11-06T21:44:01.793Z,100022.97
2022-11-06T21:46:28.301Z,100031.78
2022-11-06T21:48:55.138Z,100035.88
2022-11-06T21:51:24.456Z,100032.09
2022-11-06T21:54:09.918Z,100041.84
2022-11-06T21:56:37.384Z,100050.50
2022-11-06T21:59:05.202Z,100048.00
2022-11-06T22:01:32.670Z,100045.25
2022-11-06T22:03:59.338Z,100050.22
2022-11-06T22:06:27.200Z,100047.06
2022-11-06T22:08:55.387Z,100056.97
2022-11-06T22:11:30.833Z,100054.81
2022-11-06T22:13:59.487Z,100052.22
2022-11-06T22:16:28.327Z,100057.06
2022-11-06T22:18:55.204Z,100056.56
2022-11-06T22:21:23.987Z,100062.44
2022-11-06T22:23:50.487Z,100069.72
2022-11-06T22:26:21.910Z,100067.53
2022-11-06T22:28:48.855Z,100064.56
2022-11-06T22:31:15.251Z,100055.47
2022-11-06T22:33:41.616Z,100059.16
2022-11-06T22:36:10.519Z,100059.16
2022-11-06T22:38:38.006Z,100072.94
2022-11-06T22:41:05.624Z,100063.75
2022-11-06T22:43:32.580Z,100070.22
2022-11-06T22:46:00.446Z,100068.13
2022-11-06T22:48:28.550Z,100074.19
2022-11-06T22:50:55.070Z,100082.13
2022-11-06T22:53:22.042Z,100075.88
2022-11-06T22:55:48.623Z,100081.34
2022-11-06T22:58:15.032Z,100076.97
2022-11-06T23:00:41.394Z,100087.94
2022-11-06T23:03:07.918Z,100085.44
2022-11-06T23:05:38.663Z,100080.09
2022-11-06T23:08:05.388Z,100081.66
2022-11-06T23:10:33.976Z,100087.25
2022-11-06T23:13:00.345Z,100089.41
2022-11-06T23:15:26.864Z,100078.97
2022-11-06T23:17:53.256Z,100084.44
2022-11-06T23:20:19.716Z,100089.09
2022-11-06T23:22:46.406Z,100083.31
2022-11-06T23:25:13.918Z,100087.63
2022-11-06T23:27:46.992Z,100089.41
2022-11-06T23:30:15.899Z,100088.13
2022-11-06T23:32:42.702Z,100095.59
2022-11-06T23:35:13.498Z,100097.78
2022-11-06T23:37:41.528Z,100106.63
2022-11-06T23:40:09.390Z,100101.56
2022-11-06T23:42:35.928Z,100112.59
2022-11-06T23:45:21.013Z,100106.03
2022-11-06T23:47:50.588Z,100110.72
2022-11-06T23:50:17.355Z,100114.09
2022-11-06T23:52:44.411Z,100114.09
2022-11-06T23:55:11.240Z,100112.38
2022-11-06T23:57:37.691Z,100110.47
